createdAt,value
2022-09-27T00:03:17.359Z,94996.47
2022-09-27T00:08:20.264Z,95001.06
2022-09-27T00:13:22.963Z,94999.72
2022-09-27T00:18:27.506Z,94997.06
2022-09-27T00:23:30.379Z,94988.53
2022-09-27T00:28:33.667Z,94987.91
2022-09-27T00:33:37.755Z,94991.78
2022-09-27T00:38:41.686Z,94990.81
2022-09-27T00:43:47.554Z,94977.56
2022-09-27T00:49:01.302Z,94981.97
2022-09-27T00:54:04.525Z,94988.72
2022-09-27T00:59:13.504Z,94971.31
2022-09-27T01:04:22.604Z,94974.38
2022-09-27T01:09:25.837Z,94971.50
2022-09-27T01:14:42.411Z,94973.63
2022-09-27T01:20:18.122Z,94980.38
2022-09-27T01:25:33.364Z,94989.72
2022-09-27T01:30:44.343Z,94989.38
2022-09-27T01:36:01.826Z,94976.16
2022-09-27T01:41:09.963Z,94972.94
2022-09-27T01:46:19.237Z,94962.94
2022-09-27T01:51:26.358Z,94970.06
2022-09-27T01:56:34.509Z,94969.25
2022-09-27T02:01:40.549Z,94968.75
2022-09-27T02:06:47.918Z,94974.41
2022-09-27T02:11:56.465Z,94988.88
2022-09-27T02:17:06.075Z,94990.56
2022-09-27T02:22:26.360Z,94997.88
2022-09-27T02:27:32.919Z,94994.72
2022-09-27T02:32:37.493Z,94996.81
2022-09-27T02:37:40.475Z,94999.59
2022-09-27T02:42:45.366Z,95005.63
2022-09-27T02:48:02.484Z,95005.63
2022-09-27T02:53:12.047Z,95009.16
2022-09-27T02:58:26.839Z,95020.72
2022-09-27T03:03:38.165Z,95022.22
2022-09-27T03:08:41.940Z,95034.16
2022-09-27T03:14:07.222Z,95028.78
2022-09-27T03:19:09.908Z,95039.03
2022-09-27T03:24:12.598Z,95036.56
2022-09-27T03:29:15.619Z,95033.50
2022-09-27T03:34:19.733Z,95034.25
2022-09-27T03:39:22.708Z,95048.41
2022-09-27T03:44:25.442Z,95049.63
2022-09-27T03:49:29.526Z,95044.78
2022-09-27T03:54:32.682Z,95055.84
2022-09-27T03:59:35.382Z,95039.63
2022-09-27T04:04:39.461Z,95073.19
2022-09-27T04:09:44.687Z,95050.44
2022-09-27T04:14:47.645Z,95044.91
2022-09-27T04:19:52.146Z,95064.69
2022-09-27T04:24:54.899Z,95079.03
2022-09-27T04:29:57.558Z,95080.69
2022-09-27T04:35:19.216Z,95089.63
2022-09-27T04:40:22.550Z,95073.28
2022-09-27T04:45:25.321Z,95064.56
2022-09-27T04:50:32.163Z,95074.38
2022-09-27T04:55:37.308Z,95075.47
2022-09-27T05:00:40.305Z,95078.59
2022-09-27T05:05:44.357Z,95097.00
2022-09-27T05:10:47.345Z,95112.19
2022-09-27T05:15:50.055Z,95098.81
2022-09-27T05:20:54.338Z,95097.31
2022-09-27T05:25:57.327Z,95097.94
2022-09-27T05:31:00.177Z,95095.88
2022-09-27T05:36:04.593Z,95097.81
2022-09-27T05:41:07.843Z,95103.22
2022-09-27T05:46:10.961Z,95120.53
2022-09-27T05:51:15.746Z,95117.59
2022-09-27T05:56:18.826Z,95132.44
2022-09-27T06:01:22.105Z,95135.16
2022-09-27T06:06:26.281Z,95130.41
2022-09-27T06:11:29.204Z,95129.56
2022-09-27T06:16:32.109Z,95130.19
2022-09-27T06:21:36.427Z,95141.78
2022-09-27T06:26:39.210Z,95157.63
2022-09-27T06:31:41.883Z,95155.88
2022-09-27T06:36:49.414Z,95157.72
2022-09-27T06:41:57.873Z,95160.19
2022-09-27T06:47:00.578Z,95149.75
2022-09-27T06:52:05.993Z,95155.75
2022-09-27T06:57:08.680Z,95154.09
2022-09-27T07:02:12.168Z,95154.75
2022-09-27T07:07:16.502Z,95174.00
2022-09-27T07:12:23.154Z,95164.50
2022-09-27T07:17:27.806Z,95159.03
2022-09-27T07:22:31.918Z,95181.97
2022-09-27T07:27:38.198Z,95176.38
2022-09-27T07:32:42.307Z,95175.41
2022-09-27T07:37:46.378Z,95168.50
2022-09-27T07:42:50.121Z,95188.94
2022-09-27T07:47:53.257Z,95190.50
2022-09-27T07:52:57.705Z,95198.47
2022-09-27T07:58:04.853Z,95188.53
2022-09-27T08:03:08.357Z,95177.28
2022-09-27T08:08:13.200Z,95172.19
2022-09-27T08:13:17.968Z,95175.72
2022-09-27T08:18:21.981Z,95186.56
2022-09-27T08:23:26.795Z,95190.88
2022-09-27T08:28:30.173Z,95190.78
2022-09-27T08:33:35.762Z,95190.88
2022-09-27T08:38:43.284Z,95191.84
2022-09-27T08:43:55.163Z,95210.53
2022-09-27T08:49:05.574Z,95206.22
2022-09-27T08:54:15.775Z,95219.56
2022-09-27T08:59:21.895Z,95223.53
2022-09-27T09:04:29.696Z,95205.69
2022-09-27T09:09:45.515Z,95204.31
2022-09-27T09:15:08.419Z,95209.56
2022-09-27T09:20:31.002Z,95207.84
2022-09-27T09:25:41.819Z,95203.50
2022-09-27T09:30:51.772Z,95205.63
2022-09-27T09:36:00.270Z,95197.44
2022-09-27T09:41:11.268Z,95195.22
2022-09-27T09:46:19.404Z,95204.81
2022-09-27T09:51:28.794Z,95210.69
2022-09-27T09:56:36.705Z,95211.06
2022-09-27T10:01:43.453Z,95216.69
2022-09-27T10:06:46.189Z,95217.84
2022-09-27T10:11:50.458Z,95210.44
2022-09-27T10:16:58.974Z,95208.72
2022-09-27T10:22:04.401Z,95208.84
2022-09-27T10:27:08.493Z,95217.66
2022-09-27T10:32:24.633Z,95204.38
2022-09-27T10:37:27.346Z,95209.72
2022-09-27T10:42:36.442Z,95214.81
2022-09-27T10:47:39.338Z,95211.97
2022-09-27T10:52:42.877Z,95207.59
2022-09-27T10:57:50.741Z,95209.31
2022-09-27T11:02:56.523Z,95224.25
2022-09-27T11:08:02.905Z,95234.66
2022-09-27T11:13:14.374Z,95225.91
2022-09-27T11:18:28.479Z,95231.84
2022-09-27T11:23:44.545Z,95233.56
2022-09-27T11:28:57.427Z,95227.03
2022-09-27T11:34:17.403Z,95230.63
2022-09-27T11:39:24.122Z,95241.28
2022-09-27T11:45:02.999Z,95257.22
2022-09-27T11:50:31.348Z,95273.22
2022-09-27T11:55:46.152Z,95275.66
2022-09-27T12:01:07.283Z,95264.94
2022-09-27T12:06:14.332Z,95248.41
2022-09-27T12:11:24.756Z,95245.09
2022-09-27T12:16:31.555Z,95235.34
2022-09-27T12:21:34.746Z,95220.91
2022-09-27T12:26:40.900Z,95205.19
2022-09-27T12:31:51.781Z,95214.78
2022-09-27T12:37:01.952Z,95206.06
2022-09-27T12:42:14.128Z,95202.25
2022-09-27T12:47:32.099Z,95204.16
2022-09-27T13:00:18.568Z,95213.53
2022-09-27T13:06:24.690Z,95235.22
2022-09-27T13:18:25.732Z,95222.66
2022-09-27T13:23:59.393Z,95216.09
2022-09-27T13:29:04.656Z,95215.81
2022-09-27T13:34:49.600Z,95211.69
2022-09-27T13:46:20.556Z,95202.31
2022-09-27T13:51:50.783Z,95192.56
2022-09-27T13:56:58.011Z,95192.50
2022-09-27T14:02:14.490Z,95192.94
2022-09-27T14:07:27.238Z,95185.22
2022-09-27T14:12:34.351Z,95186.72
2022-09-27T14:17:45.736Z,95180.72
2022-09-27T14:22:55.806Z,95180.00
2022-09-27T14:28:00.176Z,95187.78
2022-09-27T14:33:04.009Z,95175.69
2022-09-27T14:38:32.954Z,95169.53
2022-09-27T14:43:34.813Z,95191.22
2022-09-27T14:48:39.082Z,95182.97
2022-09-27T14:53:47.139Z,95185.69
2022-09-27T14:58:56.555Z,95188.06
2022-09-27T15:04:07.443Z,95185.25
2022-09-27T15:09:15.073Z,95189.63
2022-09-27T15:14:21.299Z,95195.47
2022-09-27T15:19:26.929Z,95184.75
2022-09-27T15:24:44.989Z,95202.66
2022-09-27T15:29:51.318Z,95197.25
2022-09-27T15:34:54.887Z,95192.78
2022-09-27T15:40:29.999Z,95197.38
2022-09-27T15:45:34.874Z,95201.34
2022-09-27T15:50:39.168Z,95199.63
2022-09-27T15:55:45.237Z,95204.41
2022-09-27T16:00:55.446Z,95200.97
2022-09-27T16:05:59.878Z,95207.09
2022-09-27T16:11:05.614Z,95218.22
2022-09-27T16:16:15.414Z,95228.50
2022-09-27T16:21:18.196Z,95238.47
2022-09-27T16:26:22.509Z,95242.09
2022-09-27T16:31:25.260Z,95244.53
2022-09-27T16:36:28.186Z,95237.50
2022-09-27T16:41:33.225Z,95233.63
2022-09-27T16:46:35.763Z,95229.56
2022-09-27T16:51:56.029Z,95224.69
2022-09-27T16:57:01.429Z,95230.81
2022-09-27T17:02:05.410Z,95235.38
2022-09-27T17:07:08.202Z,95246.56
2022-09-27T17:12:12.367Z,95231.09
2022-09-27T17:17:15.286Z,95231.47
2022-09-27T17:22:18.442Z,95241.25
2022-09-27T17:27:25.927Z,95232.50
2022-09-27T17:32:29.043Z,95240.00
2022-09-27T17:37:31.734Z,95248.13
2022-09-27T17:42:37.282Z,95243.88
2022-09-27T17:47:57.769Z,95243.28
2022-09-27T17:53:00.509Z,95235.16
2022-09-27T17:58:05.401Z,95238.94
2022-09-27T18:03:08.184Z,95239.28
2022-09-27T18:08:10.990Z,95247.97
2022-09-27T18:13:15.099Z,95257.91
2022-09-27T18:18:18.949Z,95250.75
2022-09-27T18:23:21.646Z,95255.59
2022-09-27T18:28:29.198Z,95244.50
2022-09-27T18:33:33.111Z,95236.91
2022-09-27T18:38:36.238Z,95248.03
2022-09-27T18:43:41.279Z,95259.19
2022-09-27T18:48:44.262Z,95266.34
2022-09-27T18:53:47.971Z,95255.91
2022-09-27T18:58:52.326Z,95265.09
2022-09-27T19:03:55.078Z,95262.16
2022-09-27T19:08:58.837Z,95263.66
2022-09-27T19:14:04.771Z,95262.16
2022-09-27T19:19:07.597Z,95263.09
2022-09-27T19:24:10.262Z,95274.84
2022-09-27T19:29:14.818Z,95266.34
2022-09-27T19:34:17.831Z,95262.78
2022-09-27T19:39:20.531Z,95271.25
2022-09-27T19:44:25.986Z,95267.81
2022-09-27T19:49:28.695Z,95265.69
2022-09-27T19:54:31.562Z,95254.22
2022-09-27T19:59:35.621Z,95261.09
2022-09-27T20:04:38.674Z,95268.28
2022-09-27T20:09:42.004Z,95266.66
2022-09-27T20:14:46.323Z,95265.22
2022-09-27T20:19:49.278Z,95249.88
2022-09-27T20:24:51.930Z,95269.34
2022-09-27T20:29:57.166Z,95262.81
2022-09-27T20:35:00.090Z,95269.03
2022-09-27T20:40:08.083Z,95249.75
2022-09-27T20:45:12.485Z,95250.22
2022-09-27T20:50:15.390Z,95247.09
2022-09-27T20:55:18.144Z,95256.28
2022-09-27T21:00:22.213Z,95244.53
2022-09-27T21:05:25.019Z,95240.00
2022-09-27T21:10:27.796Z,95226.97
2022-09-27T21:15:34.091Z,95221.28
2022-09-27T21:20:36.833Z,95220.34
2022-09-27T21:25:39.529Z,95219.88
2022-09-27T21:30:43.675Z,95216.13
2022-09-27T21:35:50.853Z,95201.78
2022-09-27T21:40:58.319Z,95199.50
2022-09-27T21:46:07.514Z,95196.44
2022-09-27T21:51:12.235Z,95197.41
2022-09-27T21:56:14.962Z,95197.09
2022-09-27T22:01:21.736Z,95193.69
2022-09-27T22:06:26.363Z,95183.72
2022-09-27T22:11:31.120Z,95182.03
2022-09-27T22:16:35.385Z,95179.09
2022-09-27T22:21:39.632Z,95160.84
2022-09-27T22:26:43.653Z,95159.03
2022-09-27T22:31:47.815Z,95146.81
2022-09-27T22:36:53.657Z,95141.22
2022-09-27T22:41:57.123Z,95133.94
2022-09-27T22:47:01.224Z,95138.03
2022-09-27T22:52:03.955Z,95123.22
2022-09-27T22:57:06.653Z,95107.44
2022-09-27T23:02:10.727Z,95101.72
2022-09-27T23:07:13.648Z,95087.88
2022-09-27T23:12:16.360Z,95077.06
2022-09-27T23:17:20.467Z,95067.94
2022-09-27T23:22:23.234Z,95044.75
2022-09-27T23:27:48.801Z,95054.34
2022-09-27T23:32:55.511Z,95040.53
2022-09-27T23:38:01.325Z,95033.72
2022-09-27T23:43:04.488Z,95021.13
2022-09-27T23:48:08.564Z,95021.59
2022-09-27T23:53:11.257Z,95017.00
2022-09-27T23:58:14.186Z,95005.78
